Time;durP1;ratioP1;P1;durP2;ratioP2;P2;SDS_P1;SDS_P2;PMS_P1;PMS_P2;Temp;Humidity;BMP_temperature;BMP_pressure;BME280_temperature;BME280_humidity;BME280_pressure;Samples;Min_cycle;Max_cycle;Signal;HPM_P1;HPM_P2
2023/03/21 00:01:12;;;;;;;29.60;13.52;;;17.40;65.00;;;;;;5093490;28;20031;-24
2023/03/21 00:03:38;;;;;;;31.20;13.52;;;17.40;65.10;;;;;;5091886;28;20111;-25
2023/03/21 00:06:10;;;;;;;32.88;13.10;;;17.40;65.00;;;;;;5092991;28;20104;-24
2023/03/21 00:08:37;;;;;;;30.17;12.98;;;17.40;65.10;;;;;;5093004;28;20391;-24
2023/03/21 00:11:05;;;;;;;26.00;12.93;;;17.40;65.10;;;;;;5093385;28;20099;-23
2023/03/21 00:13:32;;;;;;;28.00;12.77;;;17.40;65.10;;;;;;5093400;28;20028;-24
2023/03/21 00:16:16;;;;;;;28.13;12.50;;;17.40;65.10;;;;;;5093095;28;20055;-24
2023/03/21 00:18:51;;;;;;;29.35;13.05;;;17.40;65.10;;;;;;5093061;28;20522;-23
2023/03/21 00:21:19;;;;;;;25.80;12.43;;;17.40;65.10;;;;;;5093034;28;20490;-23
2023/03/21 00:23:46;;;;;;;26.73;12.10;;;17.40;65.20;;;;;;5092655;28;20028;-23
2023/03/21 00:26:13;;;;;;;27.33;12.45;;;17.40;65.20;;;;;;5092993;28;20076;-23
2023/03/21 00:28:41;;;;;;;28.17;12.88;;;17.30;65.10;;;;;;5092831;28;20036;-23
2023/03/21 00:31:07;;;;;;;23.60;11.52;;;17.30;65.10;;;;;;5093197;28;20050;-23
2023/03/21 00:33:34;;;;;;;27.13;12.38;;;17.30;65.20;;;;;;5092844;28;20089;-24
2023/03/21 00:36:01;;;;;;;26.73;11.90;;;17.30;65.20;;;;;;5094146;28;20028;-23
2023/03/21 00:38:27;;;;;;;27.63;12.82;;;17.30;65.20;;;;;;5097071;28;20024;-23
2023/03/21 00:40:53;;;;;;;28.00;12.55;;;17.30;65.20;;;;;;5096949;28;20032;-24
2023/03/21 00:43:22;;;;;;;29.65;12.70;;;17.30;65.20;;;;;;5096757;28;20016;-23
2023/03/21 00:45:50;;;;;;;24.60;10.98;;;17.30;65.20;;;;;;5096519;28;20536;-23
2023/03/21 00:48:17;;;;;;;26.65;12.18;;;17.30;65.20;;;;;;5096912;28;20395;-23
2023/03/21 00:50:45;;;;;;;24.23;11.82;;;17.30;65.20;;;;;;5095411;28;20028;-23
2023/03/21 00:53:13;;;;;;;27.27;12.05;;;17.30;65.20;;;;;;5096828;28;20480;-23
2023/03/21 00:55:39;;;;;;;25.38;11.73;;;17.30;65.20;;;;;;5096435;28;20377;-24
2023/03/21 00:58:05;;;;;;;25.13;11.73;;;17.20;65.30;;;;;;5096278;28;20078;-23
2023/03/21 01:00:32;;;;;;;29.00;12.15;;;17.20;65.30;;;;;;5096378;28;20037;-23
2023/03/21 01:03:06;;;;;;;20.67;11.20;;;17.20;65.30;;;;;;5096703;28;20104;-23
2023/03/21 01:08:23;;;;;;;25.45;11.48;;;17.20;65.20;;;;;;5096734;28;20039;-25
2023/03/21 01:10:51;;;;;;;22.08;11.30;;;17.20;65.30;;;;;;5096182;28;20544;-22
2023/03/21 01:13:19;;;;;;;26.13;11.50;;;17.20;65.30;;;;;;5096487;28;20028;-24
2023/03/21 01:15:48;;;;;;;20.58;10.75;;;17.20;65.30;;;;;;5094698;28;20462;-23
2023/03/21 01:18:15;;;;;;;24.15;11.38;;;17.20;65.30;;;;;;5095855;28;20099;-23
2023/03/21 01:20:42;;;;;;;24.05;11.18;;;17.20;65.30;;;;;;5095997;28;20154;-23
2023/03/21 01:23:09;;;;;;;23.25;11.07;;;17.20;65.30;;;;;;5096048;28;20443;-24
2023/03/21 01:25:35;;;;;;;21.08;10.52;;;17.20;65.40;;;;;;5095886;28;20039;-23
2023/03/21 01:28:01;;;;;;;25.25;11.38;;;17.20;65.30;;;;;;5096145;28;20114;-23
2023/03/21 01:30:27;;;;;;;20.08;10.63;;;17.20;65.30;;;;;;5094604;28;20099;-23
2023/03/21 01:32:52;;;;;;;23.25;10.77;;;17.20;65.40;;;;;;5095772;28;20020;-23
2023/03/21 01:35:18;;;;;;;24.08;10.68;;;17.10;65.40;;;;;;5096045;28;20024;-24
2023/03/21 01:37:44;;;;;;;23.33;11.82;;;17.20;65.40;;;;;;5095527;28;20175;-23
2023/03/21 01:40:26;;;;;;;23.17;11.70;;;17.20;65.40;;;;;;5095532;28;20032;-23
2023/03/21 01:42:53;;;;;;;24.27;10.40;;;17.10;65.40;;;;;;5096125;28;20028;-23
2023/03/21 01:45:56;;;;;;;21.42;10.18;;;17.10;65.40;;;;;;5095893;28;20036;-23
2023/03/21 01:48:23;;;;;;;21.48;9.98;;;17.20;65.40;;;;;;5095468;28;20043;-23
2023/03/21 01:50:50;;;;;;;22.60;11.25;;;17.10;65.40;;;;;;5095660;28;20142;-22
2023/03/21 01:53:19;;;;;;;21.35;11.05;;;17.10;65.40;;;;;;5095645;28;20022;-23
2023/03/21 01:55:46;;;;;;;21.52;11.07;;;17.10;65.40;;;;;;5095432;28;20036;-23
2023/03/21 01:58:17;;;;;;;22.63;10.40;;;17.10;65.40;;;;;;5095612;28;20032;-23
2023/03/21 02:00:47;;;;;;;20.23;10.68;;;17.10;65.40;;;;;;5095583;28;20067;-23
2023/03/21 02:03:15;;;;;;;23.75;10.68;;;17.10;65.40;;;;;;5095313;28;20024;-23
2023/03/21 02:05:59;;;;;;;19.45;10.50;;;17.10;65.40;;;;;;5095686;28;20067;-23
2023/03/21 02:08:27;;;;;;;21.33;10.55;;;17.10;65.50;;;;;;5095127;28;20490;-23
2023/03/21 02:10:54;;;;;;;19.15;10.18;;;17.00;65.50;;;;;;5095334;28;20020;-23
2023/03/21 02:13:20;;;;;;;21.65;10.70;;;17.10;65.50;;;;;;5094967;28;20417;-23
2023/03/21 02:16:11;;;;;;;16.90;9.43;;;17.10;65.50;;;;;;5095064;28;20044;-23
2023/03/21 02:18:36;;;;;;;19.80;9.68;;;17.00;65.50;;;;;;5094778;28;20117;-23
2023/03/21 02:21:17;;;;;;;16.42;9.52;;;17.00;65.50;;;;;;5094824;28;20095;-24
2023/03/21 02:23:42;;;;;;;17.88;9.82;;;17.10;65.50;;;;;;5094682;28;20016;-23
2023/03/21 02:26:45;;;;;;;20.67;10.00;;;17.00;65.50;;;;;;5094773;28;20017;-25
2023/03/21 02:29:36;;;;;;;19.20;9.68;;;17.00;65.50;;;;;;5094715;28;20024;-24
2023/03/21 02:32:13;;;;;;;20.17;10.15;;;17.00;65.50;;;;;;5094443;28;20036;-23
2023/03/21 02:35:11;;;;;;;20.33;10.20;;;17.00;65.50;;;;;;5094697;28;20032;-24
2023/03/21 02:38:02;;;;;;;16.48;9.15;;;17.00;65.60;;;;;;5094675;28;20096;-24
2023/03/21 02:40:46;;;;;;;19.27;9.82;;;17.00;65.60;;;;;;5094678;28;20039;-24
2023/03/21 02:43:18;;;;;;;16.58;9.50;;;17.00;65.60;;;;;;5094744;28;20039;-24
2023/03/21 02:45:46;;;;;;;19.13;9.82;;;17.00;65.60;;;;;;5094246;28;20089;-25
2023/03/21 02:48:18;;;;;;;17.52;9.25;;;17.00;65.60;;;;;;5094639;28;20031;-23
2023/03/21 02:50:51;;;;;;;17.08;9.85;;;17.00;65.60;;;;;;5094883;28;20105;-25
2023/03/21 02:53:22;;;;;;;19.70;9.90;;;16.90;65.60;;;;;;5094309;28;20109;-24
2023/03/21 02:55:50;;;;;;;21.13;9.80;;;17.00;65.60;;;;;;5094036;28;20445;-24
2023/03/21 02:58:20;;;;;;;16.30;9.63;;;16.90;65.60;;;;;;5094313;28;20055;-24
2023/03/21 03:00:48;;;;;;;20.20;9.70;;;17.00;65.60;;;;;;5094598;28;20032;-24
2023/03/21 03:03:15;;;;;;;18.15;9.20;;;16.90;65.60;;;;;;5094407;28;20099;-24
2023/03/21 03:05:52;;;;;;;16.30;9.07;;;16.90;65.60;;;;;;5094046;28;20032;-23
2023/03/21 03:08:21;;;;;;;17.42;9.50;;;16.90;65.60;;;;;;5094288;28;20024;-23
2023/03/21 03:11:20;;;;;;;16.92;8.82;;;16.90;65.70;;;;;;5094192;28;20067;-24
2023/03/21 03:13:45;;;;;;;19.45;10.00;;;16.90;65.70;;;;;;5093734;28;20111;-24
2023/03/21 03:16:28;;;;;;;15.90;9.23;;;16.90;65.70;;;;;;5093717;28;20115;-23
2023/03/21 03:19:00;;;;;;;17.63;9.55;;;16.90;65.70;;;;;;5093626;28;20047;-23
2023/03/21 03:21:29;;;;;;;16.50;9.25;;;16.90;65.70;;;;;;5094002;28;20039;-23
2023/03/21 03:24:35;;;;;;;15.80;8.52;;;16.90;65.70;;;;;;5093443;28;20483;-24
2023/03/21 03:27:28;;;;;;;15.40;8.68;;;16.90;65.70;;;;;;5093168;28;20024;-24
2023/03/21 03:29:58;;;;;;;17.88;9.20;;;16.90;65.70;;;;;;5093445;28;20034;-24
2023/03/21 03:32:46;;;;;;;18.40;9.27;;;16.90;65.70;;;;;;5093578;28;20055;-24
2023/03/21 03:35:16;;;;;;;16.42;8.77;;;16.90;65.70;;;;;;5093157;28;20060;-24
2023/03/21 03:37:46;;;;;;;16.05;8.73;;;16.90;65.80;;;;;;5093758;28;20024;-27
2023/03/21 03:40:20;;;;;;;15.73;8.82;;;16.90;65.80;;;;;;5093506;28;20020;-25
2023/03/21 03:42:55;;;;;;;16.33;8.68;;;16.90;65.80;;;;;;5093784;28;20035;-24
2023/03/21 03:45:29;;;;;;;17.90;8.73;;;16.90;65.80;;;;;;5094555;28;20028;-24
2023/03/21 03:48:13;;;;;;;15.50;8.38;;;16.90;65.80;;;;;;5093498;28;20097;-24
2023/03/21 03:51:02;;;;;;;13.90;8.68;;;16.90;65.80;;;;;;5093365;28;20032;-24
2023/03/21 03:53:43;;;;;;;15.57;8.50;;;16.90;65.80;;;;;;5093300;28;20067;-24
2023/03/21 03:56:11;;;;;;;15.25;8.15;;;16.90;65.80;;;;;;5093349;28;20035;-24
2023/03/21 03:58:41;;;;;;;13.82;7.88;;;16.90;65.90;;;;;;5093254;28;20024;-24
2023/03/21 04:01:07;;;;;;;14.15;8.73;;;16.80;65.80;;;;;;5093459;28;20028;-24
2023/03/21 04:03:37;;;;;;;16.27;8.65;;;16.90;65.90;;;;;;5093290;28;20020;-24
2023/03/21 04:06:03;;;;;;;15.18;7.95;;;16.80;65.90;;;;;;5093228;28;20570;-24
2023/03/21 04:08:30;;;;;;;14.95;8.20;;;16.80;65.90;;;;;;5093157;28;20030;-24
2023/03/21 04:10:56;;;;;;;15.35;8.50;;;16.80;65.90;;;;;;5094150;28;20066;-25
2023/03/21 04:13:22;;;;;;;14.10;8.65;;;16.80;65.90;;;;;;5097349;28;20065;-24
2023/03/21 04:15:48;;;;;;;16.13;9.18;;;16.80;65.90;;;;;;5097106;28;20024;-24
2023/03/21 04:18:14;;;;;;;13.90;7.80;;;16.80;65.90;;;;;;5097062;28;20131;-25
2023/03/21 04:20:40;;;;;;;16.52;8.85;;;16.80;65.90;;;;;;5097461;28;20071;-24
2023/03/21 04:23:07;;;;;;;15.07;8.13;;;16.80;65.90;;;;;;5097372;28;20112;-24
2023/03/21 04:25:36;;;;;;;15.60;8.63;;;16.80;65.90;;;;;;5097019;28;20028;-24
2023/03/21 04:28:02;;;;;;;16.08;8.73;;;16.80;65.90;;;;;;5096807;28;20503;-24
2023/03/21 04:30:32;;;;;;;13.85;7.95;;;16.80;66.00;;;;;;5096973;28;20381;-24
2023/03/21 04:32:59;;;;;;;15.25;8.38;;;16.80;66.00;;;;;;5096963;28;20040;-24
2023/03/21 04:35:27;;;;;;;16.10;8.80;;;16.80;66.00;;;;;;5097260;28;20063;-24
2023/03/21 04:37:54;;;;;;;15.07;8.43;;;16.80;66.00;;;;;;5096953;28;20028;-24
2023/03/21 04:40:20;;;;;;;16.38;9.13;;;16.80;66.00;;;;;;5096705;28;20020;-24
2023/03/21 04:42:47;;;;;;;15.13;8.55;;;16.70;66.00;;;;;;5096830;28;20028;-25
2023/03/21 04:45:15;;;;;;;14.32;7.68;;;16.70;66.00;;;;;;5097065;28;20387;-24
2023/03/21 04:47:42;;;;;;;14.73;8.15;;;16.70;66.00;;;;;;5097036;28;20409;-24
2023/03/21 04:50:09;;;;;;;13.48;7.88;;;16.80;66.00;;;;;;5096682;28;20032;-24
2023/03/21 04:52:35;;;;;;;13.40;7.72;;;16.70;66.00;;;;;;5096636;28;20196;-24
2023/03/21 04:55:02;;;;;;;16.65;8.27;;;16.70;66.00;;;;;;5096440;28;20066;-24
2023/03/21 04:57:28;;;;;;;13.13;8.18;;;16.70;66.00;;;;;;5096872;28;20024;-25
2023/03/21 04:59:54;;;;;;;15.73;8.35;;;16.70;66.00;;;;;;5096525;28;20107;-24
2023/03/21 05:02:20;;;;;;;13.88;7.63;;;16.70;66.00;;;;;;5096723;28;20032;-24
2023/03/21 05:04:46;;;;;;;15.55;8.45;;;16.70;66.00;;;;;;5096369;28;20115;-24
2023/03/21 05:07:12;;;;;;;13.27;7.43;;;16.70;66.10;;;;;;5096698;28;20107;-24
2023/03/21 05:09:38;;;;;;;14.10;8.00;;;16.80;66.10;;;;;;5096172;28;20024;-24
2023/03/21 05:12:04;;;;;;;14.98;8.32;;;16.70;66.00;;;;;;5096295;28;20024;-25
2023/03/21 05:14:30;;;;;;;15.18;8.40;;;16.70;66.10;;;;;;5096543;28;20020;-24
2023/03/21 05:16:56;;;;;;;12.65;7.47;;;16.70;66.00;;;;;;5096267;28;21118;-23
2023/03/21 05:19:39;;;;;;;13.40;8.55;;;16.70;66.10;;;;;;5096236;28;20467;-23
2023/03/21 05:22:10;;;;;;;14.07;7.68;;;16.70;66.10;;;;;;5095525;28;20028;-24
2023/03/21 05:24:40;;;;;;;12.65;7.40;;;16.70;66.10;;;;;;5096259;28;20024;-24
2023/03/21 05:27:07;;;;;;;14.30;8.15;;;16.70;66.10;;;;;;5096233;28;20036;-24
2023/03/21 05:29:33;;;;;;;15.15;8.75;;;16.70;66.10;;;;;;5096218;28;20047;-24
2023/03/21 05:32:00;;;;;;;12.93;7.63;;;16.70;66.10;;;;;;5094575;28;20020;-24
2023/03/21 05:34:27;;;;;;;12.00;8.20;;;16.60;66.10;;;;;;5094880;28;20077;-24
2023/03/21 05:36:53;;;;;;;12.05;7.65;;;16.70;66.10;;;;;;5096038;28;20067;-24
2023/03/21 05:39:19;;;;;;;10.70;6.88;;;16.70;66.10;;;;;;5094284;28;20028;-24
2023/03/21 05:41:45;;;;;;;12.77;7.75;;;16.70;66.10;;;;;;5095502;28;20039;-25
2023/03/21 05:44:12;;;;;;;14.52;7.72;;;16.70;66.10;;;;;;5095714;28;20028;-24
2023/03/21 05:46:38;;;;;;;14.13;8.07;;;16.70;66.00;;;;;;5095849;28;20372;-24
2023/03/21 05:49:04;;;;;;;13.07;7.78;;;16.80;66.00;;;;;;5095847;28;20103;-24
2023/03/21 05:51:30;;;;;;;13.38;7.85;;;16.90;65.90;;;;;;5095511;28;20430;-24
2023/03/21 05:53:56;;;;;;;13.57;8.02;;;16.90;65.80;;;;;;5095063;28;20028;-24
2023/03/21 05:56:22;;;;;;;11.68;7.65;;;16.90;65.70;;;;;;5095861;28;20024;-24
2023/03/21 05:58:47;;;;;;;12.40;7.68;;;17.00;65.60;;;;;;5095628;28;20077;-25
2023/03/21 06:01:13;;;;;;;12.20;7.40;;;17.00;65.50;;;;;;5095208;28;20088;-24
2023/03/21 06:03:40;;;;;;;11.52;7.50;;;17.10;65.30;;;;;;5095515;28;20059;-24
2023/03/21 06:06:06;;;;;;;11.07;6.75;;;17.20;65.10;;;;;;5094969;28;20560;-24
2023/03/21 06:08:32;;;;;;;12.25;7.07;;;17.30;65.00;;;;;;5095469;28;20028;-24
2023/03/21 06:10:58;;;;;;;12.73;7.55;;;17.30;64.90;;;;;;5095385;28;20024;-24
2023/03/21 06:13:24;;;;;;;12.35;6.90;;;17.40;64.80;;;;;;5095036;28;20028;-24
2023/03/21 06:15:50;;;;;;;10.55;6.93;;;17.40;64.80;;;;;;5094826;28;20039;-24
2023/03/21 06:18:16;;;;;;;12.80;7.05;;;17.40;64.80;;;;;;5095217;28;20082;-24
2023/03/21 06:20:42;;;;;;;13.30;7.28;;;17.40;64.80;;;;;;5094870;28;20115;-24
2023/03/21 06:23:08;;;;;;;12.65;6.93;;;17.40;64.80;;;;;;5094893;28;20103;-24
2023/03/21 06:25:34;;;;;;;10.95;6.15;;;17.40;64.80;;;;;;5094912;28;20024;-24
2023/03/21 06:28:00;;;;;;;12.85;7.55;;;17.40;64.80;;;;;;5094478;28;20024;-24
2023/03/21 06:30:26;;;;;;;14.40;7.80;;;17.40;64.80;;;;;;5094606;28;20024;-24
2023/03/21 06:32:53;;;;;;;11.73;7.20;;;17.40;64.80;;;;;;5094400;28;20035;-24
2023/03/21 06:35:19;;;;;;;11.63;7.25;;;17.50;64.60;;;;;;5094264;28;20032;-25
2023/03/21 06:37:48;;;;;;;12.75;8.00;;;17.60;64.40;;;;;;5094395;28;20400;-24
2023/03/21 06:40:14;;;;;;;13.57;8.48;;;17.70;64.20;;;;;;5094682;28;20051;-24
2023/03/21 06:42:40;;;;;;;12.27;7.60;;;17.90;63.90;;;;;;5094780;28;20081;-24
2023/03/21 06:45:06;;;;;;;12.00;7.47;;;18.00;63.60;;;;;;5094755;28;20036;-24
2023/03/21 06:47:32;;;;;;;14.43;8.25;;;18.10;63.30;;;;;;5094726;28;20043;-24
2023/03/21 06:49:58;;;;;;;13.90;8.43;;;18.10;63.10;;;;;;5094126;28;20425;-24
2023/03/21 06:52:24;;;;;;;11.00;7.80;;;18.20;62.90;;;;;;5094271;28;20028;-24
2023/03/21 06:54:50;;;;;;;11.40;7.70;;;18.30;62.80;;;;;;5094418;28;20028;-25
2023/03/21 06:57:16;;;;;;;12.25;8.07;;;18.30;62.70;;;;;;5094497;28;20028;-24
2023/03/21 06:59:42;;;;;;;10.52;7.43;;;18.30;62.70;;;;;;5094144;28;20119;-28
2023/03/21 07:02:11;;;;;;;12.57;8.27;;;18.40;62.60;;;;;;5094410;28;20445;-25
2023/03/21 07:04:37;;;;;;;12.18;8.20;;;18.40;62.60;;;;;;5094066;28;20020;-24
2023/03/21 07:07:03;;;;;;;12.65;8.00;;;18.40;62.60;;;;;;5094023;28;20031;-25
2023/03/21 07:09:29;;;;;;;11.80;7.43;;;18.40;62.50;;;;;;5093815;28;20097;-24
2023/03/21 07:11:56;;;;;;;12.65;8.23;;;18.50;62.30;;;;;;5093949;28;20052;-24
2023/03/21 07:14:22;;;;;;;11.23;7.55;;;18.60;62.20;;;;;;5093920;28;20031;-25
2023/03/21 07:16:48;;;;;;;11.18;7.45;;;18.80;61.90;;;;;;5092183;28;20036;-24
2023/03/21 07:19:14;;;;;;;15.10;8.77;;;18.90;61.60;;;;;;5093776;28;20028;-24
2023/03/21 07:21:42;;;;;;;13.88;7.85;;;19.10;61.30;;;;;;5093777;28;20101;-25
2023/03/21 07:24:08;;;;;;;11.63;7.47;;;19.30;61.00;;;;;;5092309;28;20024;-24
2023/03/21 07:26:34;;;;;;;13.63;8.40;;;19.40;60.70;;;;;;5093686;28;20036;-24
2023/03/21 07:29:00;;;;;;;12.07;8.20;;;19.60;60.40;;;;;;5092376;28;20028;-24
2023/03/21 07:31:26;;;;;;;11.43;7.93;;;19.80;60.10;;;;;;5093727;28;20024;-24
2023/03/21 07:33:52;;;;;;;12.05;7.65;;;19.90;59.70;;;;;;5092201;28;20028;-25
2023/03/21 07:36:18;;;;;;;13.90;8.07;;;20.30;59.20;;;;;;5093565;28;20360;-24
2023/03/21 07:38:45;;;;;;;12.82;7.75;;;20.50;58.70;;;;;;5093882;28;20024;-24
2023/03/21 07:41:11;;;;;;;10.90;7.55;;;20.80;58.00;;;;;;5093286;28;20024;-24
2023/03/21 07:43:37;;;;;;;13.98;8.50;;;21.10;57.30;;;;;;5093295;28;20031;-24
2023/03/21 07:46:04;;;;;;;12.30;7.70;;;21.30;56.90;;;;;;5093072;28;20020;-25
2023/03/21 07:48:30;;;;;;;11.68;7.45;;;21.40;56.40;;;;;;5092249;28;20047;-24
2023/03/21 07:50:56;;;;;;;11.60;7.55;;;21.40;56.10;;;;;;5093310;28;20433;-24
2023/03/21 07:53:22;;;;;;;10.40;7.20;;;21.30;56.10;;;;;;5093350;28;20119;-24
2023/03/21 07:55:55;;;;;;;9.77;6.85;;;21.10;56.40;;;;;;5092960;28;20115;-24
2023/03/21 07:58:22;;;;;;;9.65;6.68;;;20.90;56.80;;;;;;5093637;28;20042;-24
2023/03/21 08:00:48;;;;;;;11.45;7.53;;;20.70;57.30;;;;;;5093220;28;20115;-24
2023/03/21 08:03:14;;;;;;;11.45;7.20;;;20.50;57.70;;;;;;5092370;28;20158;-24
2023/03/21 08:05:41;;;;;;;10.35;6.90;;;20.30;58.10;;;;;;5093419;28;20506;-24
2023/03/21 08:08:07;;;;;;;10.25;6.70;;;20.10;58.40;;;;;;5093467;28;20032;-25
2023/03/21 08:10:34;;;;;;;10.55;7.40;;;19.90;58.70;;;;;;5092766;28;20468;-24
2023/03/21 08:13:00;;;;;;;10.02;7.10;;;19.80;59.00;;;;;;5092948;28;20031;-24
2023/03/21 08:15:26;;;;;;;10.88;6.95;;;19.70;59.30;;;;;;5093209;28;20024;-24
2023/03/21 08:17:52;;;;;;;11.35;7.00;;;19.60;59.50;;;;;;5091385;28;20135;-24
2023/03/21 08:20:20;;;;;;;10.90;6.95;;;19.50;59.70;;;;;;5093665;28;20111;-24
2023/03/21 08:22:48;;;;;;;10.68;6.80;;;19.40;59.90;;;;;;5093224;28;20040;-24
2023/03/21 08:25:16;;;;;;;11.63;6.93;;;19.40;60.00;;;;;;5093166;28;20025;-23
2023/03/21 08:27:44;;;;;;;11.80;7.60;;;19.30;60.20;;;;;;5093192;28;20055;-23
2023/03/21 08:30:12;;;;;;;9.70;6.95;;;19.30;60.30;;;;;;5093021;28;20052;-24
2023/03/21 08:32:39;;;;;;;9.30;6.47;;;19.20;60.40;;;;;;5092949;28;20391;-24
2023/03/21 08:35:09;;;;;;;10.57;6.70;;;19.10;60.50;;;;;;5093282;28;20032;-23
2023/03/21 08:37:36;;;;;;;10.70;6.78;;;19.10;60.60;;;;;;5093283;28;20028;-24
2023/03/21 08:40:05;;;;;;;10.73;6.75;;;19.10;60.60;;;;;;5092657;28;20056;-24
2023/03/21 08:42:31;;;;;;;10.55;7.15;;;19.00;60.70;;;;;;5093358;28;20032;-24
2023/03/21 08:44:57;;;;;;;10.15;7.10;;;19.00;60.70;;;;;;5092592;28;20055;-23
2023/03/21 08:47:23;;;;;;;10.57;7.07;;;19.00;60.70;;;;;;5092519;28;20020;-23
2023/03/21 08:49:49;;;;;;;10.20;7.22;;;19.00;60.80;;;;;;5092573;28;20032;-23
2023/03/21 08:52:15;;;;;;;10.68;7.68;;;19.00;60.80;;;;;;5092752;28;20038;-23
2023/03/21 08:54:43;;;;;;;13.68;8.10;;;19.00;60.80;;;;;;5092496;28;20035;-23
2023/03/21 08:57:10;;;;;;;9.80;6.90;;;18.90;60.80;;;;;;5093974;28;20031;-24
2023/03/21 08:59:36;;;;;;;9.95;6.80;;;18.90;60.80;;;;;;5096266;28;20472;-24
2023/03/21 09:02:03;;;;;;;10.57;7.38;;;18.90;60.80;;;;;;5096445;28;20036;-24
2023/03/21 09:04:29;;;;;;;9.77;7.22;;;18.90;60.80;;;;;;5094901;28;20166;-24
2023/03/21 09:06:55;;;;;;;11.55;7.65;;;18.90;60.90;;;;;;5096463;28;20039;-23
2023/03/21 09:09:21;;;;;;;9.93;7.05;;;18.90;60.90;;;;;;5096196;28;20028;-23
2023/03/21 09:11:47;;;;;;;11.15;7.30;;;18.90;60.90;;;;;;5095853;28;20116;-23
2023/03/21 09:14:13;;;;;;;11.10;7.32;;;18.90;60.90;;;;;;5096040;28;20032;-23
2023/03/21 09:16:40;;;;;;;10.88;7.03;;;18.90;60.90;;;;;;5095746;28;20098;-24
2023/03/21 09:19:07;;;;;;;9.90;6.88;;;18.90;60.90;;;;;;5096222;28;20476;-24
2023/03/21 09:21:34;;;;;;;11.60;7.35;;;18.80;60.90;;;;;;5095693;28;20527;-24
2023/03/21 09:24:01;;;;;;;10.55;6.53;;;18.90;60.90;;;;;;5095580;28;20037;-23
2023/03/21 09:26:27;;;;;;;9.75;6.95;;;18.90;60.90;;;;;;5095674;28;20483;-23
2023/03/21 09:28:54;;;;;;;10.77;7.00;;;18.90;60.90;;;;;;5095816;28;20036;-23
2023/03/21 09:31:22;;;;;;;10.93;7.45;;;18.90;60.90;;;;;;5095805;28;20376;-23
2023/03/21 09:33:57;;;;;;;10.73;6.85;;;18.90;60.90;;;;;;5095683;28;20024;-24
2023/03/21 09:36:25;;;;;;;10.43;7.28;;;18.90;60.90;;;;;;5095614;28;20055;-24
2023/03/21 09:38:53;;;;;;;10.80;7.43;;;18.90;60.90;;;;;;5095866;28;20096;-23
2023/03/21 09:41:49;;;;;;;10.95;7.07;;;18.90;60.90;;;;;;5095254;28;20506;-24
2023/03/21 09:44:58;;;;;;;10.10;7.15;;;18.90;60.80;;;;;;5095956;28;20448;-24
2023/03/21 09:47:33;;;;;;;9.98;6.68;;;18.90;60.80;;;;;;5095342;28;20392;-24
2023/03/21 09:50:36;;;;;;;10.55;6.63;;;18.90;60.90;;;;;;5095693;28;20118;-24
2023/03/21 09:53:28;;;;;;;9.80;6.95;;;18.90;60.80;;;;;;5053309;28;20037;-24
2023/03/21 09:55:54;;;;;;;10.00;7.20;;;18.90;60.80;;;;;;5052578;28;20126;-24
2023/03/21 09:58:25;;;;;;;9.95;7.00;;;18.90;60.80;;;;;;5053083;28;20065;-24
2023/03/21 10:00:55;;;;;;;10.13;7.10;;;18.90;60.80;;;;;;5053044;28;20040;-25
2023/03/21 10:03:25;;;;;;;10.18;6.80;;;18.90;60.80;;;;;;5053036;28;20072;-24
2023/03/21 10:05:57;;;;;;;9.00;6.97;;;18.90;60.80;;;;;;5052844;28;20025;-23
2023/03/21 10:08:33;;;;;;;12.07;7.45;;;18.90;60.70;;;;;;5052055;28;20120;-24
2023/03/21 10:11:43;;;;;;;9.38;6.90;;;18.90;60.70;;;;;;5052798;28;20052;-24
2023/03/21 10:14:37;;;;;;;9.20;6.47;;;18.90;60.70;;;;;;5025302;28;20115;-24
2023/03/21 10:17:25;;;;;;;11.38;6.68;;;18.90;60.70;;;;;;5052544;28;20048;-24
2023/03/21 10:20:09;;;;;;;9.52;6.43;;;18.90;60.80;;;;;;5052363;28;20032;-24
2023/03/21 10:22:36;;;;;;;17.23;7.00;;;18.90;60.70;;;;;;5052779;28;20374;-24
2023/03/21 10:25:03;;;;;;;10.77;6.72;;;18.90;60.80;;;;;;5052462;28;20037;-25
2023/03/21 10:27:31;;;;;;;10.98;6.35;;;18.80;60.80;;;;;;5055670;28;20143;-23
2023/03/21 10:29:59;;;;;;;10.52;6.75;;;18.90;60.80;;;;;;5094937;28;20035;-24
2023/03/21 10:32:26;;;;;;;11.30;7.18;;;18.90;60.80;;;;;;5095078;28;20027;-23
2023/03/21 10:34:57;;;;;;;12.27;7.80;;;18.90;60.80;;;;;;5095054;28;20081;-23
2023/03/21 10:37:24;;;;;;;9.90;7.40;;;18.80;60.70;;;;;;5095009;28;20024;-24
2023/03/21 10:39:53;;;;;;;10.82;7.63;;;18.80;60.70;;;;;;5094673;28;20020;-24
2023/03/21 10:42:32;;;;;;;12.77;8.07;;;18.90;60.70;;;;;;5094850;28;20032;-23
2023/03/21 10:44:58;;;;;;;12.30;7.85;;;18.80;60.70;;;;;;5094903;28;20093;-23
2023/03/21 10:47:31;;;;;;;12.27;8.38;;;18.80;60.60;;;;;;5094836;28;20476;-23
2023/03/21 10:50:06;;;;;;;12.52;8.68;;;18.80;60.60;;;;;;5094578;28;20475;-23
2023/03/21 10:52:33;;;;;;;10.32;7.65;;;18.80;60.50;;;;;;5094679;28;20103;-23
2023/03/21 10:55:30;;;;;;;11.98;8.25;;;18.80;60.50;;;;;;5094663;28;20035;-23
2023/03/21 10:58:07;;;;;;;12.48;8.57;;;18.80;60.40;;;;;;5094361;28;20085;-23
2023/03/21 11:00:40;;;;;;;12.20;8.65;;;18.80;60.40;;;;;;5094824;28;20039;-24
2023/03/21 11:03:19;;;;;;;12.97;9.63;;;18.80;60.30;;;;;;5094442;28;20044;-24
2023/03/21 11:05:45;;;;;;;13.45;9.93;;;18.80;60.30;;;;;;5094316;28;20027;-25
2023/03/21 11:08:17;;;;;;;12.52;9.23;;;18.80;60.20;;;;;;5094064;28;20058;-24
2023/03/21 11:11:03;;;;;;;12.57;8.77;;;18.80;60.20;;;;;;5094243;28;20020;-24
2023/03/21 11:13:41;;;;;;;11.85;8.65;;;18.80;60.10;;;;;;5094454;28;20024;-24
2023/03/21 11:16:22;;;;;;;13.82;9.50;;;18.80;60.10;;;;;;5093842;28;20499;-24
2023/03/21 11:18:50;;;;;;;12.43;8.07;;;18.80;60.20;;;;;;5093676;28;20415;-24
2023/03/21 11:21:16;;;;;;;12.05;8.32;;;18.70;60.20;;;;;;5093488;28;20058;-23
2023/03/21 11:23:48;;;;;;;10.98;8.18;;;18.70;60.30;;;;;;5093603;28;20115;-29
2023/03/21 11:26:35;;;;;;;11.95;8.40;;;18.80;60.30;;;;;;5093970;28;20054;-24
2023/03/21 11:29:35;;;;;;;11.90;8.45;;;18.80;60.20;;;;;;5093786;28;20020;-25
2023/03/21 11:32:21;;;;;;;11.25;7.97;;;18.80;60.20;;;;;;5093512;28;20090;-23
2023/03/21 11:34:58;;;;;;;11.35;8.27;;;18.80;60.20;;;;;;5093945;28;20030;-24
2023/03/21 11:37:46;;;;;;;9.77;7.25;;;18.70;60.20;;;;;;5093668;28;20032;-24
2023/03/21 11:40:22;;;;;;;10.60;7.82;;;18.80;60.30;;;;;;5085821;28;20082;-23
2023/03/21 11:42:54;;;;;;;10.95;7.93;;;18.70;60.40;;;;;;5093472;28;20506;-24
2023/03/21 11:45:31;;;;;;;11.48;8.10;;;18.80;60.40;;;;;;5093691;28;20024;-24
2023/03/21 11:48:00;;;;;;;11.63;8.25;;;18.80;60.40;;;;;;5093258;28;20112;-24
2023/03/21 11:50:32;;;;;;;10.73;7.28;;;18.70;60.30;;;;;;5093917;28;20020;-24
2023/03/21 11:53:11;;;;;;;11.25;8.02;;;18.70;60.50;;;;;;5093383;28;20521;-24
2023/03/21 11:55:56;;;;;;;10.40;7.55;;;18.70;60.50;;;;;;5093282;28;20107;-24
2023/03/21 11:58:49;;;;;;;12.68;8.45;;;18.70;60.50;;;;;;5093835;28;20022;-24
2023/03/21 12:01:40;;;;;;;9.93;7.28;;;18.70;60.50;;;;;;5093447;28;20031;-24
2023/03/21 12:04:19;;;;;;;11.25;8.02;;;18.70;60.60;;;;;;5093024;28;20126;-24
2023/03/21 12:07:20;;;;;;;10.60;6.93;;;18.80;60.60;;;;;;5093257;28;20020;-24
2023/03/21 12:10:02;;;;;;;9.35;7.00;;;18.70;60.60;;;;;;5093172;28;20032;-24
2023/03/21 12:12:43;;;;;;;11.15;7.70;;;18.70;60.60;;;;;;5093159;28;20039;-24
2023/03/21 12:15:26;;;;;;;10.35;7.15;;;18.70;60.70;;;;;;5093451;28;20537;-24
2023/03/21 12:17:55;;;;;;;11.35;7.95;;;18.70;60.70;;;;;;5092681;28;20573;-24
2023/03/21 12:20:49;;;;;;;10.80;8.05;;;18.70;60.60;;;;;;5093010;28;20032;-24
2023/03/21 12:23:24;;;;;;;10.68;7.55;;;18.70;60.50;;;;;;5093133;28;20479;-24
2023/03/21 12:26:36;;;;;;;10.30;7.72;;;18.70;60.50;;;;;;5092734;28;20064;-23
2023/03/21 12:29:21;;;;;;;10.05;6.88;;;18.70;60.40;;;;;;5079162;28;20043;-24
2023/03/21 12:32:06;;;;;;;9.88;7.05;;;18.70;60.50;;;;;;5093644;28;20103;-24
2023/03/21 12:34:53;;;;;;;10.02;6.57;;;18.70;60.50;;;;;;5097226;28;20031;-24
2023/03/21 12:37:36;;;;;;;12.57;8.50;;;18.70;60.60;;;;;;5095820;28;20443;-24
2023/03/21 12:40:16;;;;;;;9.73;6.97;;;18.70;60.60;;;;;;5096923;28;20063;-24
2023/03/21 12:43:03;;;;;;;11.43;8.35;;;18.70;60.50;;;;;;5095674;28;20028;-24
2023/03/21 12:45:40;;;;;;;10.00;7.28;;;18.60;60.50;;;;;;5096904;28;20020;-24
2023/03/21 12:48:15;;;;;;;10.18;7.13;;;18.70;60.50;;;;;;5095362;28;20392;-24
2023/03/21 12:50:41;;;;;;;13.05;7.88;;;18.70;60.60;;;;;;5096775;28;20425;-24
2023/03/21 12:53:16;;;;;;;11.32;8.77;;;18.70;60.40;;;;;;5096680;28;20024;-24
2023/03/21 12:55:43;;;;;;;13.35;9.40;;;18.70;60.40;;;;;;5096290;28;20036;-29
2023/03/21 12:58:17;;;;;;;12.35;7.70;;;18.70;60.40;;;;;;5096642;28;20020;-24
2023/03/21 13:00:50;;;;;;;9.48;6.45;;;18.70;60.40;;;;;;5096752;28;20043;-23